sensor_id;sensor_type;location;lat;lon;timestamp;temperature;humidity
11609;DHT22;5860;52.018;8.536;2022-12-29T00:00:07;10.00;99.90
11609;DHT22;5860;52.018;8.536;2022-12-29T00:02:34;10.00;99.90
11609;DHT22;5860;52.018;8.536;2022-12-29T00:05:01;9.90;99.90
11609;DHT22;5860;52.018;8.536;2022-12-29T00:07:28;10.00;99.90
11609;DHT22;5860;52.018;8.536;2022-12-29T00:09:55;10.00;99.90
11609;DHT22;5860;52.018;8.536;2022-12-29T00:12:22;10.00;99.90
11609;DHT22;5860;52.018;8.536;2022-12-29T00:14:49;10.10;99.90
11609;DHT22;5860;52.018;8.536;2022-12-29T00:17:34;10.20;99.90
11609;DHT22;5860;52.018;8.536;2022-12-29T00:20:01;10.10;99.90
11609;DHT22;5860;52.018;8.536;2022-12-29T00:22:46;10.00;99.90
11609;DHT22;5860;52.018;8.536;2022-12-29T00:25:32;10.00;99.90
11609;DHT22;5860;52.018;8.536;2022-12-29T00:28:17;10.00;99.90
11609;DHT22;5860;52.018;8.536;2022-12-29T00:31:10;10.10;99.90
11609;DHT22;5860;52.018;8.536;2022-12-29T00:33:57;10.10;99.90
11609;DHT22;5860;52.018;8.536;2022-12-29T00:36:43;10.10;99.90
11609;DHT22;5860;52.018;8.536;2022-12-29T00:39:13;10.10;99.90
11609;DHT22;5860;52.018;8.536;2022-12-29T00:42:07;10.10;99.90
11609;DHT22;5860;52.018;8.536;2022-12-29T00:45:06;10.10;99.90
11609;DHT22;5860;52.018;8.536;2022-12-29T00:47:33;10.10;99.90
11609;DHT22;5860;52.018;8.536;2022-12-29T00:50:00;10.10;99.90
11609;DHT22;5860;52.018;8.536;2022-12-29T00:52:27;10.00;99.90
11609;DHT22;5860;52.018;8.536;2022-12-29T00:54:54;10.10;99.90
11609;DHT22;5860;52.018;8.536;2022-12-29T00:57:21;10.10;99.90
11609;DHT22;5860;52.018;8.536;2022-12-29T00:59:47;10.10;99.90
11609;DHT22;5860;52.018;8.536;2022-12-29T01:02:14;10.10;99.90
11609;DHT22;5860;52.018;8.536;2022-12-29T01:04:42;10.10;99.90
11609;DHT22;5860;52.018;8.536;2022-12-29T01:07:09;10.10;99.90
11609;DHT22;5860;52.018;8.536;2022-12-29T01:09:36;10.10;99.90
11609;DHT22;5860;52.018;8.536;2022-12-29T01:12:21;10.10;99.90
11609;DHT22;5860;52.018;8.536;2022-12-29T01:15:09;10.00;99.90
11609;DHT22;5860;52.018;8.536;2022-12-29T01:17:36;10.10;99.90
11609;DHT22;5860;52.018;8.536;2022-12-29T01:20:04;10.00;99.90
11609;DHT22;5860;52.018;8.536;2022-12-29T01:22:31;10.00;99.90
11609;DHT22;5860;52.018;8.536;2022-12-29T01:24:59;9.90;99.90
11609;DHT22;5860;52.018;8.536;2022-12-29T01:27:26;10.00;99.90
11609;DHT22;5860;52.018;8.536;2022-12-29T01:29:53;10.00;99.90
11609;DHT22;5860;52.018;8.536;2022-12-29T01:32:20;10.20;99.90
11609;DHT22;5860;52.018;8.536;2022-12-29T01:34:47;10.20;99.90
11609;DHT22;5860;52.018;8.536;2022-12-29T01:37:14;10.20;99.90
11609;DHT22;5860;52.018;8.536;2022-12-29T01:39:41;10.20;99.90
11609;DHT22;5860;52.018;8.536;2022-12-29T01:42:15;10.20;99.90
11609;DHT22;5860;52.018;8.536;2022-12-29T01:47:18;10.20;99.90
11609;DHT22;5860;52.018;8.536;2022-12-29T01:49:47;10.20;99.90
11609;DHT22;5860;52.018;8.536;2022-12-29T01:52:14;10.20;99.90
11609;DHT22;5860;52.018;8.536;2022-12-29T01:54:45;10.20;99.90
11609;DHT22;5860;52.018;8.536;2022-12-29T01:57:20;10.20;99.90
11609;DHT22;5860;52.018;8.536;2022-12-29T01:59:52;10.30;99.90
11609;DHT22;5860;52.018;8.536;2022-12-29T02:02:20;10.20;99.90
11609;DHT22;5860;52.018;8.536;2022-12-29T02:04:47;10.30;99.90
11609;DHT22;5860;52.018;8.536;2022-12-29T02:07:18;10.30;99.90
11609;DHT22;5860;52.018;8.536;2022-12-29T02:09:50;10.30;99.90
11609;DHT22;5860;52.018;8.536;2022-12-29T02:12:19;10.20;99.90
11609;DHT22;5860;52.018;8.536;2022-12-29T02:14:47;10.10;99.90
11609;DHT22;5860;52.018;8.536;2022-12-29T02:17:41;10.00;99.90
11609;DHT22;5860;52.018;8.536;2022-12-29T02:34:31;10.10;99.90
11609;DHT22;5860;52.018;8.536;2022-12-29T02:37:20;10.10;99.90
11609;DHT22;5860;52.018;8.536;2022-12-29T02:48:09;10.20;99.90
11609;DHT22;5860;52.018;8.536;2022-12-29T02:50:45;10.20;99.90
11609;DHT22;5860;52.018;8.536;2022-12-29T02:53:17;10.20;99.90
11609;DHT22;5860;52.018;8.536;2022-12-29T02:56:05;10.20;99.90
11609;DHT22;5860;52.018;8.536;2022-12-29T02:58:32;10.30;99.90
11609;DHT22;5860;52.018;8.536;2022-12-29T03:01:27;10.30;99.90
11609;DHT22;5860;52.018;8.536;2022-12-29T03:04:59;10.40;99.90
11609;DHT22;5860;52.018;8.536;2022-12-29T03:07:15;10.50;99.90
11609;DHT22;5860;52.018;8.536;2022-12-29T03:10:19;10.50;99.90
11609;DHT22;5860;52.018;8.536;2022-12-29T03:12:56;10.50;99.90
11609;DHT22;5860;52.018;8.536;2022-12-29T03:21:44;10.70;99.90
11609;DHT22;5860;52.018;8.536;2022-12-29T03:24:34;10.70;99.90
11609;DHT22;5860;52.018;8.536;2022-12-29T03:27:04;10.70;99.90
11609;DHT22;5860;52.018;8.536;2022-12-29T03:29:36;10.70;99.90
11609;DHT22;5860;52.018;8.536;2022-12-29T03:32:08;10.70;99.90
11609;DHT22;5860;52.018;8.536;2022-12-29T03:34:36;10.80;99.90
11609;DHT22;5860;52.018;8.536;2022-12-29T03:37:10;10.90;99.90
11609;DHT22;5860;52.018;8.536;2022-12-29T03:39:37;10.90;99.90
11609;DHT22;5860;52.018;8.536;2022-12-29T03:42:09;10.90;99.90
11609;DHT22;5860;52.018;8.536;2022-12-29T03:44:40;10.90;99.90
11609;DHT22;5860;52.018;8.536;2022-12-29T03:47:09;10.80;99.90
11609;DHT22;5860;52.018;8.536;2022-12-29T03:49:36;10.90;99.90
11609;DHT22;5860;52.018;8.536;2022-12-29T03:52:03;10.90;99.90
11609;DHT22;5860;52.018;8.536;2022-12-29T03:54:30;10.90;99.90
11609;DHT22;5860;52.018;8.536;2022-12-29T03:56:58;10.90;99.90
11609;DHT22;5860;52.018;8.536;2022-12-29T03:59:25;10.90;99.90
11609;DHT22;5860;52.018;8.536;2022-12-29T04:01:51;11.00;99.90
11609;DHT22;5860;52.018;8.536;2022-12-29T04:04:18;11.00;99.90
11609;DHT22;5860;52.018;8.536;2022-12-29T04:06:45;11.00;99.90
11609;DHT22;5860;52.018;8.536;2022-12-29T04:09:12;11.00;99.90
11609;DHT22;5860;52.018;8.536;2022-12-29T04:11:39;11.00;99.90
11609;DHT22;5860;52.018;8.536;2022-12-29T04:14:06;11.00;99.90
11609;DHT22;5860;52.018;8.536;2022-12-29T04:16:33;11.00;99.90
11609;DHT22;5860;52.018;8.536;2022-12-29T04:19:02;10.90;99.90
11609;DHT22;5860;52.018;8.536;2022-12-29T04:21:32;11.00;99.90
11609;DHT22;5860;52.018;8.536;2022-12-29T04:23:59;11.00;99.90
11609;DHT22;5860;52.018;8.536;2022-12-29T04:26:26;11.10;99.90
11609;DHT22;5860;52.018;8.536;2022-12-29T04:28:53;11.00;99.90
11609;DHT22;5860;52.018;8.536;2022-12-29T04:31:20;11.00;99.90
11609;DHT22;5860;52.018;8.536;2022-12-29T04:33:47;11.00;99.90
11609;DHT22;5860;52.018;8.536;2022-12-29T04:36:13;11.00;99.90
11609;DHT22;5860;52.018;8.536;2022-12-29T04:38:40;11.10;99.90
11609;DHT22;5860;52.018;8.536;2022-12-29T04:41:07;11.20;99.90
11609;DHT22;5860;52.018;8.536;2022-12-29T04:43:34;11.00;99.90
11609;DHT22;5860;52.018;8.536;2022-12-29T04:46:01;10.90;99.90
11609;DHT22;5860;52.018;8.536;2022-12-29T04:48:28;10.90;99.90
11609;DHT22;5860;52.018;8.536;2022-12-29T04:50:55;10.90;99.90
11609;DHT22;5860;52.018;8.536;2022-12-29T04:53:22;10.90;99.90
11609;DHT22;5860;52.018;8.536;2022-12-29T04:55:50;10.80;99.90
11609;DHT22;5860;52.018;8.536;2022-12-29T04:58:21;10.80;99.90
11609;DHT22;5860;52.018;8.536;2022-12-29T05:00:50;10.70;99.90
11609;DHT22;5860;52.018;8.536;2022-12-29T05:03:17;10.80;99.90
11609;DHT22;5860;52.018;8.536;2022-12-29T05:05:44;10.70;99.90
11609;DHT22;5860;52.018;8.536;2022-12-29T05:08:11;10.70;99.90
11609;DHT22;5860;52.018;8.536;2022-12-29T05:10:39;10.70;99.90
11609;DHT22;5860;52.018;8.536;2022-12-29T05:13:06;10.80;99.90
11609;DHT22;5860;52.018;8.536;2022-12-29T05:15:33;10.80;99.90
11609;DHT22;5860;52.018;8.536;2022-12-29T05:17:59;10.80;99.90
11609;DHT22;5860;52.018;8.536;2022-12-29T05:20:26;10.80;99.90
11609;DHT22;5860;52.018;8.536;2022-12-29T05:22:53;10.80;99.90
11609;DHT22;5860;52.018;8.536;2022-12-29T05:25:20;10.80;99.90
11609;DHT22;5860;52.018;8.536;2022-12-29T05:27:47;10.70;99.90
11609;DHT22;5860;52.018;8.536;2022-12-29T05:30:14;10.70;99.90
11609;DHT22;5860;52.018;8.536;2022-12-29T05:32:41;10.60;99.90
11609;DHT22;5860;52.018;8.536;2022-12-29T05:35:11;10.70;99.90
11609;DHT22;5860;52.018;8.536;2022-12-29T05:37:37;10.70;99.90
11609;DHT22;5860;52.018;8.536;2022-12-29T05:40:05;10.80;99.90
11609;DHT22;5860;52.018;8.536;2022-12-29T05:42:33;10.80;99.90
11609;DHT22;5860;52.018;8.536;2022-12-29T05:44:59;10.90;99.90
11609;DHT22;5860;52.018;8.536;2022-12-29T05:47:26;10.90;99.90
11609;DHT22;5860;52.018;8.536;2022-12-29T05:49:53;10.90;99.90
11609;DHT22;5860;52.018;8.536;2022-12-29T05:52:20;10.90;99.90
11609;DHT22;5860;52.018;8.536;2022-12-29T05:54:47;10.90;99.90
11609;DHT22;5860;52.018;8.536;2022-12-29T05:57:14;11.00;99.90
11609;DHT22;5860;52.018;8.536;2022-12-29T05:59:41;11.00;99.90
11609;DHT22;5860;52.018;8.536;2022-12-29T06:02:08;11.10;99.90
11609;DHT22;5860;52.018;8.536;2022-12-29T06:04:35;11.10;99.90
11609;DHT22;5860;52.018;8.536;2022-12-29T06:07:02;11.10;99.90
11609;DHT22;5860;52.018;8.536;2022-12-29T06:09:29;11.10;99.90
11609;DHT22;5860;52.018;8.536;2022-12-29T06:11:56;11.10;99.90
11609;DHT22;5860;52.018;8.536;2022-12-29T06:14:25;11.10;99.90
11609;DHT22;5860;52.018;8.536;2022-12-29T06:16:51;11.20;99.90
11609;DHT22;5860;52.018;8.536;2022-12-29T06:19:18;11.30;99.90
11609;DHT22;5860;52.018;8.536;2022-12-29T06:21:45;11.30;99.90
11609;DHT22;5860;52.018;8.536;2022-12-29T06:24:12;11.30;99.90
11609;DHT22;5860;52.018;8.536;2022-12-29T06:26:42;11.20;99.90
11609;DHT22;5860;52.018;8.536;2022-12-29T06:29:12;11.20;99.90
11609;DHT22;5860;52.018;8.536;2022-12-29T06:31:44;11.20;99.90
11609;DHT22;5860;52.018;8.536;2022-12-29T06:34:12;11.10;99.90
11609;DHT22;5860;52.018;8.536;2022-12-29T06:36:39;10.60;99.90
11609;DHT22;5860;52.018;8.536;2022-12-29T06:39:06;10.10;99.90
11609;DHT22;5860;52.018;8.536;2022-12-29T06:41:33;9.80;99.90
11609;DHT22;5860;52.018;8.536;2022-12-29T06:44:00;9.70;99.90
11609;DHT22;5860;52.018;8.536;2022-12-29T06:46:26;9.60;99.90
11609;DHT22;5860;52.018;8.536;2022-12-29T06:48:53;9.50;99.90
11609;DHT22;5860;52.018;8.536;2022-12-29T06:51:20;9.40;99.90
11609;DHT22;5860;52.018;8.536;2022-12-29T06:53:47;9.40;99.90
11609;DHT22;5860;52.018;8.536;2022-12-29T06:56:14;9.40;99.90
11609;DHT22;5860;52.018;8.536;2022-12-29T06:58:41;9.30;99.90
11609;DHT22;5860;52.018;8.536;2022-12-29T07:01:08;9.20;99.90
11609;DHT22;5860;52.018;8.536;2022-12-29T07:03:34;9.20;99.90
11609;DHT22;5860;52.018;8.536;2022-12-29T07:06:02;9.20;99.90
11609;DHT22;5860;52.018;8.536;2022-12-29T07:08:29;9.10;99.90
11609;DHT22;5860;52.018;8.536;2022-12-29T07:10:56;9.10;99.90
11609;DHT22;5860;52.018;8.536;2022-12-29T07:13:22;9.10;99.90
11609;DHT22;5860;52.018;8.536;2022-12-29T07:15:49;9.10;99.90
11609;DHT22;5860;52.018;8.536;2022-12-29T07:18:16;9.10;99.90
11609;DHT22;5860;52.018;8.536;2022-12-29T07:20:44;9.10;99.90
11609;DHT22;5860;52.018;8.536;2022-12-29T07:23:11;9.10;99.90
11609;DHT22;5860;52.018;8.536;2022-12-29T07:25:38;9.20;99.90
11609;DHT22;5860;52.018;8.536;2022-12-29T07:28:07;9.20;99.90
11609;DHT22;5860;52.018;8.536;2022-12-29T07:30:36;9.30;99.90
11609;DHT22;5860;52.018;8.536;2022-12-29T07:33:03;9.40;99.90
11609;DHT22;5860;52.018;8.536;2022-12-29T07:35:30;9.50;99.90
11609;DHT22;5860;52.018;8.536;2022-12-29T07:37:57;9.60;99.90
11609;DHT22;5860;52.018;8.536;2022-12-29T07:40:24;9.70;99.90
11609;DHT22;5860;52.018;8.536;2022-12-29T07:42:51;9.70;99.90
11609;DHT22;5860;52.018;8.536;2022-12-29T07:45:17;9.70;99.90
11609;DHT22;5860;52.018;8.536;2022-12-29T07:47:48;9.70;99.90
11609;DHT22;5860;52.018;8.536;2022-12-29T07:50:15;9.70;99.90
11609;DHT22;5860;52.018;8.536;2022-12-29T07:52:42;9.70;99.90
11609;DHT22;5860;52.018;8.536;2022-12-29T07:55:09;9.80;99.90
11609;DHT22;5860;52.018;8.536;2022-12-29T07:57:36;9.70;99.90
11609;DHT22;5860;52.018;8.536;2022-12-29T08:00:04;9.80;99.90
11609;DHT22;5860;52.018;8.536;2022-12-29T08:02:31;9.80;99.90
11609;DHT22;5860;52.018;8.536;2022-12-29T08:04:58;9.80;99.90
11609;DHT22;5860;52.018;8.536;2022-12-29T08:07:24;9.80;99.90
11609;DHT22;5860;52.018;8.536;2022-12-29T08:09:51;9.70;99.90
11609;DHT22;5860;52.018;8.536;2022-12-29T08:12:19;9.70;99.90
11609;DHT22;5860;52.018;8.536;2022-12-29T08:14:45;9.70;99.90
11609;DHT22;5860;52.018;8.536;2022-12-29T08:17:12;9.60;99.90
11609;DHT22;5860;52.018;8.536;2022-12-29T08:19:40;9.60;99.90
11609;DHT22;5860;52.018;8.536;2022-12-29T08:22:09;9.60;99.90
11609;DHT22;5860;52.018;8.536;2022-12-29T08:24:36;9.70;99.90
11609;DHT22;5860;52.018;8.536;2022-12-29T08:27:02;9.70;99.90
11609;DHT22;5860;52.018;8.536;2022-12-29T08:29:43;9.80;99.90
11609;DHT22;5860;52.018;8.536;2022-12-29T08:32:11;10.00;99.90
11609;DHT22;5860;52.018;8.536;2022-12-29T08:34:38;10.10;99.90
11609;DHT22;5860;52.018;8.536;2022-12-29T08:37:05;10.20;99.90
11609;DHT22;5860;52.018;8.536;2022-12-29T08:39:31;10.20;99.90
11609;DHT22;5860;52.018;8.536;2022-12-29T08:41:58;10.20;99.90
11609;DHT22;5860;52.018;8.536;2022-12-29T08:44:25;10.30;99.90
11609;DHT22;5860;52.018;8.536;2022-12-29T08:46:52;10.30;99.90
11609;DHT22;5860;52.018;8.536;2022-12-29T08:49:22;10.30;99.90
11609;DHT22;5860;52.018;8.536;2022-12-29T08:51:49;10.20;99.90
11609;DHT22;5860;52.018;8.536;2022-12-29T08:54:16;10.10;99.90
11609;DHT22;5860;52.018;8.536;2022-12-29T08:56:43;10.00;99.90
11609;DHT22;5860;52.018;8.536;2022-12-29T08:59:10;9.90;99.90
11609;DHT22;5860;52.018;8.536;2022-12-29T09:01:36;9.90;99.90
11609;DHT22;5860;52.018;8.536;2022-12-29T09:04:07;9.90;99.90
11609;DHT22;5860;52.018;8.536;2022-12-29T09:06:44;9.90;99.90
11609;DHT22;5860;52.018;8.536;2022-12-29T09:09:12;9.90;99.90
11609;DHT22;5860;52.018;8.536;2022-12-29T09:11:39;9.80;99.90
11609;DHT22;5860;52.018;8.536;2022-12-29T09:14:06;9.70;99.90
11609;DHT22;5860;52.018;8.536;2022-12-29T09:16:33;9.60;99.90
11609;DHT22;5860;52.018;8.536;2022-12-29T09:19:01;9.50;99.90
11609;DHT22;5860;52.018;8.536;2022-12-29T09:21:28;9.60;99.90
11609;DHT22;5860;52.018;8.536;2022-12-29T09:23:55;9.70;99.90
11609;DHT22;5860;52.018;8.536;2022-12-29T09:26:22;9.70;99.90
11609;DHT22;5860;52.018;8.536;2022-12-29T09:28:49;9.80;99.90
11609;DHT22;5860;52.018;8.536;2022-12-29T09:31:16;10.00;99.90
11609;DHT22;5860;52.018;8.536;2022-12-29T09:33:43;10.00;99.90
11609;DHT22;5860;52.018;8.536;2022-12-29T09:36:10;10.10;99.90
11609;DHT22;5860;52.018;8.536;2022-12-29T09:38:37;10.10;99.90
11609;DHT22;5860;52.018;8.536;2022-12-29T09:41:11;10.20;99.90
11609;DHT22;5860;52.018;8.536;2022-12-29T09:43:59;10.30;99.90
11609;DHT22;5860;52.018;8.536;2022-12-29T09:46:45;10.40;99.90
11609;DHT22;5860;52.018;8.536;2022-12-29T09:52:10;10.30;99.90
11609;DHT22;5860;52.018;8.536;2022-12-29T09:57:26;10.20;99.90
11609;DHT22;5860;52.018;8.536;2022-12-29T09:59:59;10.30;99.90
11609;DHT22;5860;52.018;8.536;2022-12-29T10:10:48;10.40;99.90
11609;DHT22;5860;52.018;8.536;2022-12-29T10:16:53;10.40;99.90
11609;DHT22;5860;52.018;8.536;2022-12-29T10:24:55;10.50;99.90
11609;DHT22;5860;52.018;8.536;2022-12-29T10:27:30;10.30;99.90
11609;DHT22;5860;52.018;8.536;2022-12-29T10:29:59;10.20;99.90
11609;DHT22;5860;52.018;8.536;2022-12-29T10:32:56;10.20;99.90
11609;DHT22;5860;52.018;8.536;2022-12-29T10:35:29;10.30;99.90
11609;DHT22;5860;52.018;8.536;2022-12-29T10:41:04;10.80;99.90
11609;DHT22;5860;52.018;8.536;2022-12-29T10:43:45;10.90;99.90
11609;DHT22;5860;52.018;8.536;2022-12-29T10:46:21;10.90;99.90
11609;DHT22;5860;52.018;8.536;2022-12-29T10:48:49;11.00;99.90
11609;DHT22;5860;52.018;8.536;2022-12-29T10:51:26;11.00;99.90
11609;DHT22;5860;52.018;8.536;2022-12-29T10:53:59;11.00;99.90
11609;DHT22;5860;52.018;8.536;2022-12-29T10:56:52;11.10;99.90
11609;DHT22;5860;52.018;8.536;2022-12-29T10:59:27;11.00;99.90
11609;DHT22;5860;52.018;8.536;2022-12-29T11:07:53;11.00;99.90
11609;DHT22;5860;52.018;8.536;2022-12-29T11:10:37;11.00;99.90
11609;DHT22;5860;52.018;8.536;2022-12-29T11:13:47;11.00;99.90
11609;DHT22;5860;52.018;8.536;2022-12-29T11:16:15;11.00;99.90
11609;DHT22;5860;52.018;8.536;2022-12-29T11:18:53;10.90;99.90
11609;DHT22;5860;52.018;8.536;2022-12-29T11:21:47;10.90;99.90
11609;DHT22;5860;52.018;8.536;2022-12-29T11:24:22;10.80;99.90
11609;DHT22;5860;52.018;8.536;2022-12-29T11:26:54;10.80;99.90
11609;DHT22;5860;52.018;8.536;2022-12-29T11:29:25;10.80;99.90
11609;DHT22;5860;52.018;8.536;2022-12-29T11:31:58;10.70;99.90
11609;DHT22;5860;52.018;8.536;2022-12-29T11:34:30;10.70;99.90
11609;DHT22;5860;52.018;8.536;2022-12-29T11:37:04;10.70;99.90
11609;DHT22;5860;52.018;8.536;2022-12-29T11:39:58;10.70;99.90
11609;DHT22;5860;52.018;8.536;2022-12-29T11:42:41;10.70;99.90
11609;DHT22;5860;52.018;8.536;2022-12-29T11:45:26;10.70;99.90
11609;DHT22;5860;52.018;8.536;2022-12-29T11:48:00;10.70;99.90
11609;DHT22;5860;52.018;8.536;2022-12-29T11:50:31;10.70;99.90
11609;DHT22;5860;52.018;8.536;2022-12-29T11:53:05;10.80;99.90
11609;DHT22;5860;52.018;8.536;2022-12-29T11:55:51;10.80;99.90
11609;DHT22;5860;52.018;8.536;2022-12-29T11:58:18;10.80;99.90
11609;DHT22;5860;52.018;8.536;2022-12-29T12:00:46;10.80;99.90
11609;DHT22;5860;52.018;8.536;2022-12-29T12:03:20;10.80;99.90
11609;DHT22;5860;52.018;8.536;2022-12-29T12:05:55;10.80;99.90
11609;DHT22;5860;52.018;8.536;2022-12-29T12:08:35;10.80;99.90
11609;DHT22;5860;52.018;8.536;2022-12-29T12:11:32;10.80;99.90
11609;DHT22;5860;52.018;8.536;2022-12-29T12:17:00;10.80;99.90
11609;DHT22;5860;52.018;8.536;2022-12-29T12:22:21;10.80;99.90
11609;DHT22;5860;52.018;8.536;2022-12-29T12:24:55;10.80;99.90
11609;DHT22;5860;52.018;8.536;2022-12-29T12:27:31;10.80;99.90
11609;DHT22;5860;52.018;8.536;2022-12-29T12:30:03;10.90;99.90
11609;DHT22;5860;52.018;8.536;2022-12-29T12:32:40;10.90;99.90
11609;DHT22;5860;52.018;8.536;2022-12-29T12:38:22;10.90;99.90
11609;DHT22;5860;52.018;8.536;2022-12-29T12:43:38;10.80;99.90
11609;DHT22;5860;52.018;8.536;2022-12-29T12:51:57;10.90;99.90
11609;DHT22;5860;52.018;8.536;2022-12-29T13:13:48;10.80;99.90
11609;DHT22;5860;52.018;8.536;2022-12-29T13:22:26;10.80;99.90
11609;DHT22;5860;52.018;8.536;2022-12-29T13:33:38;10.70;99.90
11609;DHT22;5860;52.018;8.536;2022-12-29T13:36:24;10.70;99.90
11609;DHT22;5860;52.018;8.536;2022-12-29T13:39:02;10.70;99.90
11609;DHT22;5860;52.018;8.536;2022-12-29T13:42:01;10.60;99.90
11609;DHT22;5860;52.018;8.536;2022-12-29T13:44:30;10.60;99.90
11609;DHT22;5860;52.018;8.536;2022-12-29T13:49:39;10.40;99.90
11609;DHT22;5860;52.018;8.536;2022-12-29T13:58:00;10.30;99.90
11609;DHT22;5860;52.018;8.536;2022-12-29T14:01:19;10.30;99.90
11609;DHT22;5860;52.018;8.536;2022-12-29T14:06:14;10.30;99.90
11609;DHT22;5860;52.018;8.536;2022-12-29T14:08:42;10.30;99.90
11609;DHT22;5860;52.018;8.536;2022-12-29T14:11:11;10.30;99.90
11609;DHT22;5860;52.018;8.536;2022-12-29T14:13:43;10.40;99.90
11609;DHT22;5860;52.018;8.536;2022-12-29T14:18:51;10.40;99.90
11609;DHT22;5860;52.018;8.536;2022-12-29T14:21:22;10.30;99.90
11609;DHT22;5860;52.018;8.536;2022-12-29T14:23:50;10.30;99.90
11609;DHT22;5860;52.018;8.536;2022-12-29T14:28:56;10.20;99.90
11609;DHT22;5860;52.018;8.536;2022-12-29T14:31:41;10.20;99.90
11609;DHT22;5860;52.018;8.536;2022-12-29T14:36:40;10.20;99.90
11609;DHT22;5860;52.018;8.536;2022-12-29T14:39:39;10.00;99.90
11609;DHT22;5860;52.018;8.536;2022-12-29T14:45:41;9.80;99.90
11609;DHT22;5860;52.018;8.536;2022-12-29T14:47:45;9.80;99.90
11609;DHT22;5860;52.018;8.536;2022-12-29T14:50:21;9.70;99.90
11609;DHT22;5860;52.018;8.536;2022-12-29T14:52:55;9.70;99.90
11609;DHT22;5860;52.018;8.536;2022-12-29T14:55:43;9.70;99.90
11609;DHT22;5860;52.018;8.536;2022-12-29T14:58:37;9.70;99.90
11609;DHT22;5860;52.018;8.536;2022-12-29T15:01:25;9.70;99.90
11609;DHT22;5860;52.018;8.536;2022-12-29T15:03:58;9.70;99.90
11609;DHT22;5860;52.018;8.536;2022-12-29T15:06:29;9.70;99.90
11609;DHT22;5860;52.018;8.536;2022-12-29T15:09:04;9.70;99.90
11609;DHT22;5860;52.018;8.536;2022-12-29T15:14:00;9.80;99.90
11609;DHT22;5860;52.018;8.536;2022-12-29T15:16:34;9.80;99.90
11609;DHT22;5860;52.018;8.536;2022-12-29T15:19:03;9.80;99.90
11609;DHT22;5860;52.018;8.536;2022-12-29T15:21:35;9.90;99.90
11609;DHT22;5860;52.018;8.536;2022-12-29T15:24:03;9.90;99.90
11609;DHT22;5860;52.018;8.536;2022-12-29T15:26:39;9.90;99.90
11609;DHT22;5860;52.018;8.536;2022-12-29T15:31:58;9.90;99.90
11609;DHT22;5860;52.018;8.536;2022-12-29T15:34:30;9.90;99.90
11609;DHT22;5860;52.018;8.536;2022-12-29T15:36:57;10.00;99.90
11609;DHT22;5860;52.018;8.536;2022-12-29T15:39:30;10.00;99.90
11609;DHT22;5860;52.018;8.536;2022-12-29T15:45:10;9.90;99.90
11609;DHT22;5860;52.018;8.536;2022-12-29T15:47:40;9.90;99.90
11609;DHT22;5860;52.018;8.536;2022-12-29T15:50:21;10.00;99.90
11609;DHT22;5860;52.018;8.536;2022-12-29T15:52:48;9.90;99.90
11609;DHT22;5860;52.018;8.536;2022-12-29T15:55:36;9.80;99.90
11609;DHT22;5860;52.018;8.536;2022-12-29T15:58:16;9.80;99.90
11609;DHT22;5860;52.018;8.536;2022-12-29T16:00:48;9.90;99.90
11609;DHT22;5860;52.018;8.536;2022-12-29T16:03:16;9.90;99.90
11609;DHT22;5860;52.018;8.536;2022-12-29T16:06:24;9.90;99.90
11609;DHT22;5860;52.018;8.536;2022-12-29T16:08:38;9.90;99.90
11609;DHT22;5860;52.018;8.536;2022-12-29T16:11:25;9.80;99.90
11609;DHT22;5860;52.018;8.536;2022-12-29T16:13:54;9.80;99.90
11609;DHT22;5860;52.018;8.536;2022-12-29T16:16:30;9.70;99.90
11609;DHT22;5860;52.018;8.536;2022-12-29T16:18:58;9.80;99.90
11609;DHT22;5860;52.018;8.536;2022-12-29T16:21:32;9.80;99.90
11609;DHT22;5860;52.018;8.536;2022-12-29T16:24:04;9.80;99.90
11609;DHT22;5860;52.018;8.536;2022-12-29T16:26:32;9.70;99.90
11609;DHT22;5860;52.018;8.536;2022-12-29T16:29:01;9.70;99.90
11609;DHT22;5860;52.018;8.536;2022-12-29T16:31:49;9.70;99.90
11609;DHT22;5860;52.018;8.536;2022-12-29T16:34:28;9.70;99.90
11609;DHT22;5860;52.018;8.536;2022-12-29T16:37:00;9.70;99.90
11609;DHT22;5860;52.018;8.536;2022-12-29T16:39:33;9.70;99.90
11609;DHT22;5860;52.018;8.536;2022-12-29T16:42:00;9.60;99.90
11609;DHT22;5860;52.018;8.536;2022-12-29T16:44:30;9.70;99.90
11609;DHT22;5860;52.018;8.536;2022-12-29T16:49:34;9.70;99.90
11609;DHT22;5860;52.018;8.536;2022-12-29T16:52:13;9.70;99.90
11609;DHT22;5860;52.018;8.536;2022-12-29T16:54:58;9.70;99.90
11609;DHT22;5860;52.018;8.536;2022-12-29T16:57:30;9.80;99.90
11609;DHT22;5860;52.018;8.536;2022-12-29T17:00:02;9.90;99.90
11609;DHT22;5860;52.018;8.536;2022-12-29T17:02:31;9.80;99.90
11609;DHT22;5860;52.018;8.536;2022-12-29T17:04:59;9.80;99.90
11609;DHT22;5860;52.018;8.536;2022-12-29T17:07:27;9.80;99.90
11609;DHT22;5860;52.018;8.536;2022-12-29T17:09:54;9.80;99.90
11609;DHT22;5860;52.018;8.536;2022-12-29T17:12:27;9.80;99.90
11609;DHT22;5860;52.018;8.536;2022-12-29T17:17:33;9.80;99.90
11609;DHT22;5860;52.018;8.536;2022-12-29T17:20:14;9.80;99.90
11609;DHT22;5860;52.018;8.536;2022-12-29T17:22:41;9.80;99.90
11609;DHT22;5860;52.018;8.536;2022-12-29T17:25:12;9.80;99.90
11609;DHT22;5860;52.018;8.536;2022-12-29T17:27:55;9.80;99.90
11609;DHT22;5860;52.018;8.536;2022-12-29T17:30:24;9.60;99.90
11609;DHT22;5860;52.018;8.536;2022-12-29T17:33:05;9.00;99.90
11609;DHT22;5860;52.018;8.536;2022-12-29T17:35:34;8.60;99.90
11609;DHT22;5860;52.018;8.536;2022-12-29T17:38:02;8.50;99.90
11609;DHT22;5860;52.018;8.536;2022-12-29T17:40:31;8.40;99.90
11609;DHT22;5860;52.018;8.536;2022-12-29T17:42:59;8.40;99.90
11609;DHT22;5860;52.018;8.536;2022-12-29T17:45:31;8.40;99.90
11609;DHT22;5860;52.018;8.536;2022-12-29T17:47:58;8.30;99.90
11609;DHT22;5860;52.018;8.536;2022-12-29T17:50:29;8.40;99.90
11609;DHT22;5860;52.018;8.536;2022-12-29T17:53:02;8.50;99.90
11609;DHT22;5860;52.018;8.536;2022-12-29T17:55:30;8.50;99.90
11609;DHT22;5860;52.018;8.536;2022-12-29T17:58:20;8.50;99.90
11609;DHT22;5860;52.018;8.536;2022-12-29T18:00:49;8.50;99.90
11609;DHT22;5860;52.018;8.536;2022-12-29T18:03:20;8.60;99.90
11609;DHT22;5860;52.018;8.536;2022-12-29T18:05:48;8.70;99.90
11609;DHT22;5860;52.018;8.536;2022-12-29T18:08:16;9.00;99.90
11609;DHT22;5860;52.018;8.536;2022-12-29T18:10:43;9.00;99.90
11609;DHT22;5860;52.018;8.536;2022-12-29T18:13:22;9.20;99.90
11609;DHT22;5860;52.018;8.536;2022-12-29T18:15:55;9.20;99.90
11609;DHT22;5860;52.018;8.536;2022-12-29T18:18:24;9.20;99.90
11609;DHT22;5860;52.018;8.536;2022-12-29T18:20:54;9.20;99.90
11609;DHT22;5860;52.018;8.536;2022-12-29T18:23:25;9.10;99.90
11609;DHT22;5860;52.018;8.536;2022-12-29T18:25:58;9.10;99.90
11609;DHT22;5860;52.018;8.536;2022-12-29T18:28:26;8.90;99.90
11609;DHT22;5860;52.018;8.536;2022-12-29T18:30:55;8.80;99.90
11609;DHT22;5860;52.018;8.536;2022-12-29T18:33:23;8.80;99.90
11609;DHT22;5860;52.018;8.536;2022-12-29T18:35:56;8.70;99.90
11609;DHT22;5860;52.018;8.536;2022-12-29T18:38:23;8.70;99.90
11609;DHT22;5860;52.018;8.536;2022-12-29T18:40:51;8.60;99.90
11609;DHT22;5860;52.018;8.536;2022-12-29T18:43:18;8.50;99.90
11609;DHT22;5860;52.018;8.536;2022-12-29T18:45:46;8.40;99.90
11609;DHT22;5860;52.018;8.536;2022-12-29T18:48:17;8.40;99.90
11609;DHT22;5860;52.018;8.536;2022-12-29T18:50:45;8.30;99.90